createdAt,value
2019-01-27T00:01:00.366Z,127.15
2019-01-27T00:06:04.373Z,148.72
2019-01-27T00:11:08.506Z,138.68
2019-01-27T00:16:12.690Z,124.10
2019-01-27T00:21:16.724Z,127.32
2019-01-27T00:26:20.747Z,127.30
2019-01-27T00:31:24.787Z,126.30
2019-01-27T00:36:28.805Z,113.17
2019-01-27T00:41:32.833Z,109.67
2019-01-27T00:46:36.827Z,133.97
2019-01-27T00:51:40.829Z,127.07
2019-01-27T00:56:44.856Z,132.95
2019-01-27T01:01:48.862Z,116.33
2019-01-27T01:06:52.921Z,123.25
2019-01-27T01:11:57.086Z,118.77
2019-01-27T01:17:01.136Z,127.75
2019-01-27T01:22:05.144Z,122.55
2019-01-27T01:27:09.156Z,126.75
2019-01-27T01:32:13.179Z,133.43
2019-01-27T01:37:17.201Z,127.25
2019-01-27T01:42:21.242Z,127.50
2019-01-27T01:47:25.270Z,118.13
2019-01-27T01:52:29.442Z,130.70
2019-01-27T01:57:33.443Z,118.75
2019-01-27T02:02:38.625Z,127.82
2019-01-27T02:07:42.638Z,130.32
2019-01-27T02:12:46.675Z,130.80
2019-01-27T02:17:50.697Z,141.80
2019-01-27T02:22:54.726Z,131.75
2019-01-27T02:27:58.769Z,142.37
2019-01-27T02:33:02.803Z,142.15
2019-01-27T02:38:06.849Z,133.20
2019-01-27T02:43:10.865Z,123.18
2019-01-27T02:48:14.880Z,122.75
2019-01-27T02:53:18.918Z,105.35
2019-01-27T02:58:22.910Z,129.55
2019-01-27T03:03:26.929Z,132.85
2019-01-27T03:08:32.662Z,120.25
2019-01-27T03:13:36.681Z,131.32
2019-01-27T03:18:40.716Z,123.80
2019-01-27T03:23:44.749Z,113.08
2019-01-27T03:28:48.793Z,113.57
2019-01-27T03:33:52.996Z,111.20
2019-01-27T03:38:56.993Z,84.50
2019-01-27T03:44:01.012Z,119.95
2019-01-27T03:49:05.116Z,92.10
2019-01-27T03:54:09.109Z,123.60
2019-01-27T03:59:13.129Z,123.50
2019-01-27T04:04:17.134Z,122.20
2019-01-27T04:09:21.156Z,125.65
2019-01-27T04:14:25.183Z,130.93
2019-01-27T04:19:29.242Z,132.37
2019-01-27T04:24:33.232Z,161.57
2019-01-27T04:29:37.307Z,123.82
2019-01-27T04:34:41.306Z,134.85
2019-01-27T04:39:45.347Z,96.87
2019-01-27T04:44:49.390Z,102.78
2019-01-27T04:49:53.389Z,99.85
2019-01-27T04:54:57.385Z,146.20
2019-01-27T05:00:01.412Z,126.72
2019-01-27T05:05:07.215Z,133.65
2019-01-27T05:10:12.211Z,131.37
2019-01-27T05:15:18.841Z,117.33
2019-01-27T05:20:22.907Z,80.62
2019-01-27T05:25:26.926Z,96.85
2019-01-27T05:30:31.008Z,109.63
2019-01-27T05:35:35.029Z,119.35
2019-01-27T05:40:39.096Z,112.85
2019-01-27T05:45:44.379Z,107.65
2019-01-27T05:50:48.406Z,116.88
2019-01-27T05:55:52.406Z,95.57
2019-01-27T06:00:56.440Z,111.47
2019-01-27T06:06:00.479Z,111.90
2019-01-27T06:11:04.559Z,87.37
2019-01-27T06:16:08.593Z,76.85
2019-01-27T06:21:12.605Z,95.92
2019-01-27T06:26:16.619Z,111.47
2019-01-27T06:31:20.700Z,92.35
2019-01-27T06:36:24.722Z,105.50
2019-01-27T06:41:28.749Z,96.42
2019-01-27T06:46:32.769Z,102.05
2019-01-27T06:51:36.773Z,77.58
2019-01-27T06:56:40.773Z,85.03
2019-01-27T07:01:46.629Z,77.32
2019-01-27T07:06:58.073Z,74.97
2019-01-27T07:12:06.395Z,98.22
2019-01-27T07:17:12.022Z,88.10
2019-01-27T07:22:22.005Z,79.07
2019-01-27T07:27:39.697Z,75.95
2019-01-27T07:33:00.632Z,65.87
2019-01-27T07:38:21.120Z,84.70
2019-01-27T07:43:29.583Z,64.85
2019-01-27T07:48:41.242Z,72.55
2019-01-27T07:53:52.873Z,83.65
2019-01-27T07:59:04.262Z,73.95
2019-01-27T08:04:15.501Z,61.50
2019-01-27T08:09:40.274Z,55.38
2019-01-27T08:15:01.013Z,74.70
2019-01-27T08:20:08.511Z,92.67
2019-01-27T08:25:20.258Z,72.75
2019-01-27T08:30:25.920Z,60.30
2019-01-27T08:35:37.814Z,73.75
2019-01-27T08:40:52.422Z,53.13
2019-01-27T08:45:58.081Z,91.95
2019-01-27T08:51:02.091Z,45.03
2019-01-27T08:56:06.089Z,79.15
2019-01-27T09:01:11.753Z,72.78
2019-01-27T09:06:17.513Z,60.33
2019-01-27T09:11:25.985Z,74.22
2019-01-27T09:16:40.691Z,62.62
2019-01-27T09:22:01.734Z,59.00
2019-01-27T09:27:19.444Z,71.70
2019-01-27T09:32:34.213Z,73.02
2019-01-27T09:37:46.421Z,58.68
2019-01-27T09:43:08.653Z,66.92
2019-01-27T09:48:20.516Z,50.88
2019-01-27T09:53:38.275Z,55.23
2019-01-27T09:58:43.923Z,72.10
2019-01-27T10:03:52.418Z,65.52
2019-01-27T10:09:00.841Z,55.43
2019-01-27T10:14:08.113Z,68.50
2019-01-27T10:19:16.931Z,63.55
2019-01-27T10:24:40.922Z,54.83
2019-01-27T10:29:49.125Z,46.68
2019-01-27T10:34:57.607Z,54.48
2019-01-27T10:40:09.208Z,41.63
2019-01-27T10:45:11.472Z,57.58
2019-01-27T10:50:23.194Z,52.08
2019-01-27T10:55:37.581Z,37.95
2019-01-27T11:01:01.514Z,51.33
2019-01-27T11:06:25.174Z,46.58
2019-01-27T11:11:33.546Z,46.00
2019-01-27T11:16:55.912Z,57.30
2019-01-27T11:22:01.613Z,53.55
2019-01-27T11:27:10.172Z,53.05
2019-01-27T11:32:32.417Z,55.78
2019-01-27T11:37:55.789Z,41.23
2019-01-27T11:43:10.755Z,45.12
2019-01-27T11:48:19.901Z,50.67
2019-01-27T11:53:23.997Z,55.33
2019-01-27T11:58:28.091Z,34.85
2019-01-27T12:03:32.128Z,50.23
2019-01-27T12:08:36.157Z,30.68
2019-01-27T12:13:41.733Z,54.23
2019-01-27T12:18:45.798Z,38.13
2019-01-27T12:23:49.811Z,54.95
2019-01-27T12:28:55.862Z,49.03
2019-01-27T12:33:59.937Z,53.45
2019-01-27T13:39:24.656Z,30.97
2019-01-27T13:44:28.690Z,45.17
2019-01-27T13:49:32.730Z,38.85
2019-01-27T13:54:37.170Z,37.67
2019-01-27T13:59:41.267Z,37.00
2019-01-27T14:04:48.626Z,46.98
2019-01-27T14:09:51.177Z,32.95
2019-01-27T14:14:55.402Z,44.33
2019-01-27T14:19:59.478Z,41.23
2019-01-27T14:25:04.624Z,41.70
2019-01-27T14:30:10.333Z,48.20
2019-01-27T14:35:15.284Z,34.78
2019-01-27T14:40:20.788Z,32.45
2019-01-27T14:45:25.934Z,45.75
2019-01-27T14:50:31.642Z,45.83
2019-01-27T14:55:35.687Z,44.75
2019-01-27T15:00:41.925Z,49.25
2019-01-27T15:05:46.002Z,48.95
2019-01-27T15:10:50.165Z,49.77
2019-01-27T15:15:54.305Z,51.28
2019-01-27T15:20:59.006Z,51.90
2019-01-27T15:26:04.142Z,53.28
2019-01-27T15:31:08.222Z,47.33
2019-01-27T15:36:13.504Z,44.08
2019-01-27T15:41:18.659Z,55.52
2019-01-27T15:46:22.835Z,53.85
2019-01-27T15:51:26.989Z,54.83
2019-01-27T15:56:31.569Z,52.55
2019-01-27T16:01:35.955Z,47.73
2019-01-27T16:06:40.105Z,55.28
2019-01-27T16:11:44.168Z,53.33
2019-01-27T16:16:48.317Z,47.95
2019-01-27T16:21:52.393Z,52.15
2019-01-27T16:26:56.641Z,42.55
2019-01-27T16:32:00.794Z,34.80
2019-01-27T16:37:04.967Z,44.30
2019-01-27T16:42:09.991Z,49.08
2019-01-27T16:47:18.802Z,49.08
2019-01-27T16:52:19.963Z,59.50
2019-01-27T16:57:24.034Z,46.55
2019-01-27T17:02:28.094Z,55.85
2019-01-27T17:07:32.310Z,47.75
2019-01-27T17:12:36.466Z,43.05
2019-01-27T17:17:40.559Z,48.60
2019-01-27T17:22:44.776Z,56.87
2019-01-27T17:27:48.842Z,37.33
2019-01-27T17:32:52.918Z,42.60
2019-01-27T17:37:57.140Z,32.08
2019-01-27T17:43:01.763Z,42.93
2019-01-27T17:48:05.841Z,45.83
2019-01-27T17:53:09.938Z,55.83
2019-01-27T17:58:32.398Z,49.17
2019-01-27T18:03:47.212Z,44.70
2019-01-27T18:08:59.078Z,44.70
2019-01-27T18:14:05.069Z,32.83
2019-01-27T18:19:09.117Z,51.53
2019-01-27T18:24:13.430Z,49.40
2019-01-27T18:29:17.470Z,35.75
2019-01-27T18:34:22.302Z,44.18
2019-01-27T18:39:26.377Z,45.78
2019-01-27T18:44:30.505Z,40.58
2019-01-27T18:49:34.584Z,45.25
2019-01-27T18:54:55.482Z,48.15
2019-01-27T19:00:01.239Z,38.65
2019-01-27T19:05:12.770Z,47.10
2019-01-27T19:10:21.503Z,42.15
2019-01-27T19:15:30.214Z,34.25
2019-01-27T19:20:47.978Z,41.30
2019-01-27T19:26:05.944Z,47.38
2019-01-27T19:31:24.287Z,46.48
2019-01-27T19:36:30.681Z,43.20
2019-01-27T19:41:36.781Z,53.23
2019-01-27T19:46:52.180Z,41.23
2019-01-27T19:52:00.908Z,48.10
2019-01-27T19:57:06.602Z,45.52
2019-01-27T20:02:28.920Z,41.75
2019-01-27T20:07:34.626Z,53.40
2019-01-27T20:12:52.100Z,49.95
2019-01-27T20:18:16.183Z,52.38
2019-01-27T20:23:33.511Z,53.97
2019-01-27T20:28:48.398Z,54.13
2019-01-27T20:33:57.094Z,52.27
2019-01-27T20:39:02.739Z,45.73
2019-01-27T20:44:09.598Z,54.98
2019-01-27T20:49:28.164Z,52.43
2019-01-27T20:54:33.951Z,52.93
2019-01-27T20:59:43.931Z,54.70
2019-01-27T21:05:04.933Z,60.70
2019-01-27T21:10:28.526Z,67.95
2019-01-27T21:15:34.248Z,51.27
2019-01-27T21:20:38.368Z,58.20
2019-01-27T21:25:43.584Z,58.33
2019-01-27T21:30:47.843Z,60.83
2019-01-27T21:35:51.930Z,57.20
2019-01-27T21:40:56.217Z,59.73
2019-01-27T21:46:00.231Z,60.67
2019-01-27T21:51:04.299Z,56.40
2019-01-27T21:56:08.359Z,57.33
2019-01-27T22:01:12.437Z,64.82
2019-01-27T22:06:16.657Z,57.53
2019-01-27T22:11:20.718Z,47.15
2019-01-27T22:16:25.629Z,45.80
2019-01-27T22:21:29.840Z,64.35
2019-01-27T22:26:33.919Z,36.08
2019-01-27T22:31:38.058Z,34.95
2019-01-27T22:36:42.339Z,49.88
2019-01-27T22:41:46.525Z,51.98
2019-01-27T22:46:50.563Z,43.95
2019-01-27T22:51:55.788Z,48.77
2019-01-27T22:56:59.846Z,49.63
2019-01-27T23:02:04.091Z,47.88
2019-01-27T23:07:08.142Z,53.70
2019-01-27T23:12:12.272Z,55.05
2019-01-27T23:17:16.409Z,62.53
2019-01-27T23:22:20.461Z,59.67
2019-01-27T23:27:24.606Z,64.45
2019-01-27T23:32:28.691Z,66.20
2019-01-27T23:37:32.772Z,60.08
2019-01-27T23:42:36.842Z,61.15
2019-01-27T23:47:40.889Z,52.62
2019-01-27T23:52:44.972Z,55.65
2019-01-27T23:57:49.027Z,59.70
